Time;durP1;ratioP1;P1;durP2;ratioP2;P2;SDS_P1;SDS_P2;PMS_P1;PMS_P2;Temp;Humidity;BMP_temperature;BMP_pressure;BME280_temperature;BME280_humidity;BME280_pressure;Samples;Min_cycle;Max_cycle;Signal;HPM_P1;HPM_P2
2023/01/23 00:00:53;;;;;;;33.95;12.25;;;;;;;-1.39;65.23;102272.59;6235075;23;20024;-82
2023/01/23 00:03:21;;;;;;;34.25;12.98;;;;;;;-1.63;66.30;102215.34;6207911;23;20036;-83
2023/01/23 00:06:05;;;;;;;31.83;13.40;;;;;;;-1.34;65.94;102221.88;6256166;23;20023;-84
2023/01/23 00:08:47;;;;;;;29.27;11.45;;;;;;;-1.10;65.12;102265.44;6257582;23;20016;-81
2023/01/23 00:11:22;;;;;;;29.00;11.55;;;;;;;-1.84;65.38;102136.28;6256073;23;20020;-83
2023/01/23 00:13:49;;;;;;;29.85;12.15;;;;;;;-1.43;64.44;102250.13;6230979;23;20107;-80
2023/01/23 00:16:19;;;;;;;31.63;12.82;;;;;;;-2.12;65.80;102149.44;6204873;23;20020;-84
2023/01/23 00:18:49;;;;;;;26.50;12.35;;;;;;;-2.28;65.33;102132.00;6256089;23;20024;-84
2023/01/23 00:21:18;;;;;;;31.52;13.50;;;;;;;-1.25;66.56;102268.59;6256180;23;20074;-80
2023/01/23 00:23:50;;;;;;;37.95;12.98;;;;;;;-1.93;66.34;102150.88;6256596;23;20015;-84
2023/01/23 00:26:27;;;;;;;37.40;14.43;;;;;;;-1.32;65.06;102233.09;6231346;23;20020;-80
2023/01/23 00:28:54;;;;;;;35.17;13.35;;;;;;;-0.86;65.75;102326.94;6255140;23;20014;-83
2023/01/23 00:31:24;;;;;;;27.77;12.85;;;;;;;-1.86;65.06;102158.25;6255924;23;20020;-79
2023/01/23 00:34:03;;;;;;;32.63;12.57;;;;;;;-2.05;65.77;102132.03;6229677;23;20076;-81
2023/01/23 00:36:37;;;;;;;38.85;14.65;;;;;;;-2.16;65.78;102126.97;6230840;23;20016;-79
2023/01/23 00:39:20;;;;;;;33.63;13.07;;;;;;;-1.95;65.14;102132.00;6257816;23;20031;-79
2023/01/23 00:41:48;;;;;;;31.98;13.00;;;;;;;-1.19;66.26;102267.28;6258307;23;20501;-79
2023/01/23 00:44:18;;;;;;;34.80;12.70;;;;;;;-1.46;66.10;102252.44;6208883;23;20020;-80
2023/01/23 00:46:47;;;;;;;38.03;13.65;;;;;;;-1.05;66.08;102348.50;6258922;23;20157;-80
2023/01/23 00:49:16;;;;;;;33.40;11.93;;;;;;;-2.14;65.92;102128.00;6260627;23;20076;-80
2023/01/23 00:51:46;;;;;;;35.22;13.43;;;;;;;-1.06;66.34;102333.94;6259820;23;20020;-81
2023/01/23 00:54:15;;;;;;;30.40;11.80;;;;;;;-0.96;66.34;102338.97;6209934;23;20016;-80
2023/01/23 00:56:44;;;;;;;41.45;13.27;;;;;;;-0.88;66.56;102344.69;6233573;23;20012;-78
2023/01/23 00:59:11;;;;;;;31.73;14.13;;;;;;;-1.13;65.72;102285.66;6256542;23;20063;-81
2023/01/23 01:01:38;;;;;;;31.05;12.13;;;;;;;-1.70;64.92;102197.78;6231743;23;20020;-81
2023/01/23 01:04:05;;;;;;;36.45;12.35;;;;;;;-1.44;65.50;102284.13;6257876;23;20016;-83
2023/01/23 01:06:31;;;;;;;37.88;13.13;;;;;;;-1.50;65.74;102303.19;6259863;23;20020;-78
2023/01/23 01:08:59;;;;;;;32.92;12.70;;;;;;;-1.39;66.40;102323.69;6233681;23;20012;-80
2023/01/23 01:11:25;;;;;;;33.42;12.98;;;;;;;-1.39;66.68;102304.91;6210296;23;20065;-82
2023/01/23 01:13:51;;;;;;;37.15;13.57;;;;;;;-1.89;64.90;102213.28;6236405;23;20016;-83
2023/01/23 01:16:23;;;;;;;35.63;13.43;;;;;;;-1.19;66.63;102301.41;6256967;23;20020;-80
2023/01/23 01:18:53;;;;;;;32.63;11.57;;;;;;;-1.09;66.12;102287.69;6259409;23;20072;-82
2023/01/23 01:21:24;;;;;;;28.38;11.90;;;;;;;-0.93;66.15;102295.75;6239254;23;20131;-79
2023/01/23 01:24:59;;;;;;;31.80;12.93;;;;;;;-0.44;65.74;102373.63;6269191;22;20015;-81
2023/01/23 01:27:29;;;;;;;31.70;12.05;;;;;;;-0.57;65.86;102351.31;6232415;23;20036;-79
2023/01/23 01:29:56;;;;;;;33.58;12.02;;;;;;;-1.02;65.09;102297.63;6268205;23;20020;-81
2023/01/23 01:32:22;;;;;;;39.92;12.55;;;;;;;-1.42;64.66;102266.34;6243377;23;20020;-79
2023/01/23 01:34:51;;;;;;;33.03;12.73;;;;;;;-1.21;65.09;102328.50;6269146;23;20102;-81
2023/01/23 01:37:21;;;;;;;30.10;12.55;;;;;;;-1.29;65.35;102358.53;6265778;23;20024;-80
2023/01/23 01:39:51;;;;;;;31.77;12.68;;;;;;;-1.60;65.92;102299.88;6242687;23;20543;-80
2023/01/23 01:42:17;;;;;;;33.30;11.95;;;;;;;-1.78;66.17;102240.56;6269056;23;19999;-80
2023/01/23 01:44:56;;;;;;;27.08;11.45;;;;;;;-1.28;66.53;102278.56;6267148;23;20059;-78
2023/01/23 01:47:25;;;;;;;31.63;11.80;;;;;;;-1.09;65.32;102356.69;6216135;23;20016;-77
2023/01/23 01:49:56;;;;;;;29.58;11.15;;;;;;;-1.01;66.24;102362.41;6259836;23;20023;-79
2023/01/23 01:52:26;;;;;;;25.70;11.88;;;;;;;-1.02;66.98;102328.28;6260212;23;20016;-79
2023/01/23 01:54:57;;;;;;;23.85;9.85;;;;;;;-1.00;65.32;102356.53;6233659;23;20012;-83
2023/01/23 01:57:38;;;;;;;28.02;11.02;;;;;;;-1.28;65.35;102352.66;6234934;23;20170;-80
2023/01/23 02:00:19;;;;;;;24.08;9.95;;;;;;;-1.40;66.60;102362.78;6209850;23;20020;-79
2023/01/23 02:03:00;;;;;;;27.83;10.75;;;;;;;-1.25;66.32;102355.47;6258636;23;20090;-78
2023/01/23 02:05:32;;;;;;;24.02;10.70;;;;;;;-1.75;66.25;102233.13;6233627;23;20042;-78
2023/01/23 02:08:37;;;;;;;24.70;11.18;;;;;;;-0.94;66.67;102357.88;6260040;23;20020;-81
2023/01/23 02:11:05;;;;;;;27.17;10.70;;;;;;;-1.09;65.64;102334.56;6239107;23;20027;-83
2023/01/23 02:13:37;;;;;;;26.42;11.15;;;;;;;-1.22;66.38;102301.16;6234171;23;20103;-79
2023/01/23 02:16:07;;;;;;;26.60;11.27;;;;;;;-1.36;66.45;102277.06;6230709;23;20026;-81
2023/01/23 02:18:43;;;;;;;29.67;12.68;;;;;;;-1.30;65.71;102281.75;6230383;23;20095;-80
2023/01/23 02:21:12;;;;;;;28.67;11.32;;;;;;;-1.38;64.71;102293.94;6255817;23;20103;-80
2023/01/23 02:24:07;;;;;;;25.17;9.88;;;;;;;-1.25;65.03;102354.56;6255868;23;20019;-82
2023/01/23 02:26:45;;;;;;;26.65;9.93;;;;;;;-1.72;66.32;102284.44;6228994;23;20019;-80
2023/01/23 02:29:13;;;;;;;29.67;10.70;;;;;;;-1.34;65.06;102336.84;6206026;23;20061;-82
2023/01/23 02:31:48;;;;;;;25.80;10.30;;;;;;;-1.29;66.34;102348.31;6229732;23;20016;-82
2023/01/23 02:34:14;;;;;;;22.00;10.18;;;;;;;-1.25;66.89;102329.91;6206325;23;20028;-80
2023/01/23 02:36:47;;;;;;;25.95;9.35;;;;;;;-2.01;66.49;102208.06;6256700;23;20079;-82
2023/01/23 02:39:19;;;;;;;27.98;9.85;;;;;;;-1.25;66.51;102301.81;6256606;23;20022;-84
2023/01/23 02:41:53;;;;;;;29.77;10.70;;;;;;;-0.94;66.37;102340.00;6230184;23;20016;-81
2023/01/23 02:44:31;;;;;;;24.77;10.20;;;;;;;-2.12;65.35;102139.22;6257984;23;20016;-82
2023/01/23 02:47:10;;;;;;;25.33;10.73;;;;;;;-2.34;64.90;102143.38;6255141;23;20013;-82
2023/01/23 02:49:42;;;;;;;28.80;10.40;;;;;;;-1.60;64.91;102296.44;6232603;23;20016;-82
2023/01/23 02:52:10;;;;;;;36.05;10.65;;;;;;;-1.49;66.04;102348.38;6206918;23;20020;-83
2023/01/23 02:54:40;;;;;;;28.70;10.25;;;;;;;-1.98;66.63;102270.47;6258096;23;20077;-83
2023/01/23 02:57:07;;;;;;;28.48;10.63;;;;;;;-1.27;66.45;102349.34;6256673;23;20059;-82
2023/01/23 03:02:20;;;;;;;25.38;10.48;;;;;;;-1.09;66.66;102338.78;6260222;23;20020;-81
2023/01/23 03:04:56;;;;;;;27.35;11.10;;;;;;;-1.83;66.14;102204.44;6259192;23;20016;-81
2023/01/23 03:07:28;;;;;;;25.38;10.38;;;;;;;-0.91;65.64;102350.47;6235832;23;20016;-82
2023/01/23 03:09:55;;;;;;;25.23;10.32;;;;;;;-2.31;65.99;102148.69;6237455;23;20020;-82
2023/01/23 03:12:24;;;;;;;26.85;10.93;;;;;;;-1.92;66.88;102190.97;6237586;23;20080;-79
2023/01/23 03:14:57;;;;;;;26.55;10.45;;;;;;;-1.56;66.37;102248.28;6265368;23;20066;-80
2023/01/23 03:17:33;;;;;;;29.55;10.07;;;;;;;-0.81;66.53;102375.09;6244514;23;20004;-83
2023/01/23 03:20:06;;;;;;;27.67;10.70;;;;;;;-2.03;65.53;102161.13;6229308;23;20060;-80
2023/01/23 03:22:33;;;;;;;26.65;9.68;;;;;;;-1.89;65.69;102232.06;6184853;23;20051;-83
2023/01/23 03:25:02;;;;;;;31.35;11.15;;;;;;;-1.32;65.69;102342.97;6206184;23;20030;-82
2023/01/23 03:27:33;;;;;;;34.30;10.63;;;;;;;-1.83;66.28;102254.63;6231613;23;20024;-84
2023/01/23 03:30:20;;;;;;;26.67;10.50;;;;;;;-2.23;65.27;102206.34;6259886;23;20369;-83
2023/01/23 03:33:11;;;;;;;32.95;12.18;;;;;;;-1.92;66.97;102230.88;6260124;23;20012;-85
2023/01/23 03:35:42;;;;;;;32.38;11.60;;;;;;;-1.75;66.77;102234.81;6163539;23;20034;-81
2023/01/23 03:38:16;;;;;;;29.20;10.57;;;;;;;-1.86;66.97;102211.84;6209696;23;20020;-84
2023/01/23 03:43:35;;;;;;;29.13;11.10;;;;;;;-1.49;66.88;102239.44;6233643;23;20020;-85
2023/01/23 03:46:13;;;;;;;33.15;10.75;;;;;;;-2.07;66.80;102137.03;6182619;23;20089;-82
2023/01/23 03:48:42;;;;;;;35.50;12.25;;;;;;;-1.52;66.24;102232.44;6207859;23;20469;-84
2023/01/23 03:51:17;;;;;;;28.35;11.32;;;;;;;-1.23;66.20;102291.69;6207832;23;20354;-82
2023/01/23 03:53:50;;;;;;;29.80;11.00;;;;;;;-1.26;66.42;102263.34;6232345;23;20023;-83
2023/01/23 03:56:27;;;;;;;30.65;9.55;;;;;;;-1.69;66.34;102200.44;6212289;23;20062;-80
2023/01/23 03:58:57;;;;;;;27.35;11.43;;;;;;;-1.78;66.26;102178.41;6211132;23;20376;-80
2023/01/23 04:01:28;;;;;;;26.85;10.55;;;;;;;-0.88;66.71;102339.56;6210436;23;20027;-79
2023/01/23 04:04:00;;;;;;;30.20;10.68;;;;;;;-1.68;66.13;102175.81;6184682;23;20079;-83
2023/01/23 04:06:30;;;;;;;25.70;9.80;;;;;;;-1.32;66.17;102250.13;6183325;23;20030;-84
2023/01/23 04:09:00;;;;;;;27.77;10.63;;;;;;;-1.62;66.32;102167.75;6204827;23;20016;-83
2023/01/23 04:11:29;;;;;;;27.67;10.38;;;;;;;-0.71;65.46;102342.59;6209401;23;20075;-79
2023/01/23 04:14:14;;;;;;;30.67;11.38;;;;;;;-0.62;65.60;102371.41;6239794;23;20042;-82
2023/01/23 04:16:48;;;;;;;26.63;11.07;;;;;;;-0.85;65.56;102367.06;6230991;23;20016;-80
2023/01/23 04:19:41;;;;;;;26.75;10.25;;;;;;;-1.32;66.77;102284.19;6216367;23;20035;-81
2023/01/23 04:22:09;;;;;;;30.55;11.18;;;;;;;-0.73;66.63;102375.69;6258768;23;20016;-82
2023/01/23 04:24:41;;;;;;;28.52;10.65;;;;;;;-1.83;66.67;102173.81;6232844;23;20611;-82
2023/01/23 04:27:09;;;;;;;29.20;10.43;;;;;;;-0.63;66.59;102372.19;6181137;23;20091;-81
2023/01/23 04:29:35;;;;;;;28.55;10.43;;;;;;;-1.02;65.81;102320.63;6180951;23;20038;-81
2023/01/23 04:32:03;;;;;;;27.42;10.45;;;;;;;-1.38;65.80;102259.06;6207279;23;20024;-79
2023/01/23 04:34:34;;;;;;;26.45;10.50;;;;;;;-1.32;66.36;102245.00;6259470;23;20012;-82
2023/01/23 04:37:00;;;;;;;22.80;9.82;;;;;;;-1.19;65.83;102265.63;6183779;23;20030;-80
2023/01/23 04:39:50;;;;;;;19.15;7.70;;;;;;;-0.48;66.08;102382.72;6208420;23;20479;-81
2023/01/23 04:42:25;;;;;;;25.30;8.40;;;;;;;-1.07;65.49;102301.47;6228658;23;20019;-80
2023/01/23 04:45:07;;;;;;;22.35;8.18;;;;;;;-1.17;65.68;102292.19;6205432;23;20016;-84
2023/01/23 04:47:33;;;;;;;21.90;8.80;;;;;;;-1.67;65.64;102200.56;6207731;23;20365;-82
2023/01/23 04:50:10;;;;;;;15.38;6.55;;;;;;;-1.17;65.14;102311.72;6206992;23;20027;-80
2023/01/23 04:52:38;;;;;;;13.93;5.70;;;;;;;-0.84;65.09;102389.31;6206181;23;20393;-80
2023/01/23 04:55:15;;;;;;;10.77;5.57;;;;;;;-1.74;65.64;102245.13;6232631;23;20051;-85
2023/01/23 04:57:48;;;;;;;16.50;6.82;;;;;;;-0.77;65.15;102406.91;6232314;23;20019;-84
2023/01/23 05:00:27;;;;;;;13.25;5.93;;;;;;;-1.27;65.58;102307.56;6232805;23;20016;-83
2023/01/23 05:03:01;;;;;;;11.98;5.82;;;;;;;-1.30;65.16;102290.31;6234083;23;20016;-80
2023/01/23 05:05:39;;;;;;;12.93;5.85;;;;;;;-0.63;64.74;102413.09;6212976;23;20073;-81
2023/01/23 05:08:12;;;;;;;13.07;6.03;;;;;;;-0.87;64.88;102364.38;6260189;23;20020;-82
2023/01/23 05:10:45;;;;;;;12.88;5.95;;;;;;;-2.22;63.53;102181.72;6210450;23;20023;-83
2023/01/23 05:13:14;;;;;;;12.73;5.90;;;;;;;-0.81;64.96;102410.88;6210080;23;20483;-83
2023/01/23 05:15:46;;;;;;;13.82;5.82;;;;;;;-1.27;64.76;102374.91;6232243;23;20028;-82
2023/01/23 05:18:18;;;;;;;14.98;6.38;;;;;;;-1.01;65.10;102422.09;6234762;23;20020;-81
2023/01/23 05:20:48;;;;;;;15.55;6.35;;;;;;;-1.57;64.47;102320.56;6208284;23;20050;-81
2023/01/23 05:23:15;;;;;;;14.57;5.95;;;;;;;-1.32;63.50;102388.06;6237118;23;20019;-86
2023/01/23 05:25:49;;;;;;;14.93;5.88;;;;;;;-1.70;63.49;102362.06;6208211;23;20023;-82
2023/01/23 05:28:16;;;;;;;15.45;6.20;;;;;;;-2.64;63.77;102242.94;6208043;23;20075;-82
2023/01/23 05:30:54;;;;;;;13.40;6.40;;;;;;;-2.72;64.48;102234.66;6208668;23;20464;-82
2023/01/23 05:33:51;;;;;;;15.73;6.30;;;;;;;-2.00;65.28;102320.50;6233512;23;20028;-83
2023/01/23 05:36:24;;;;;;;15.38;6.75;;;;;;;-1.95;65.02;102307.22;6212292;23;20004;-82
2023/01/23 05:38:54;;;;;;;13.63;6.25;;;;;;;-1.25;65.04;102400.56;6211503;23;20015;-80
2023/01/23 05:41:28;;;;;;;14.10;6.18;;;;;;;-1.75;64.07;102330.16;6236999;23;20024;-80
2023/01/23 05:44:15;;;;;;;16.25;6.20;;;;;;;-1.88;64.23;102299.28;6262186;23;20012;-83
2023/01/23 05:47:31;;;;;;;14.93;5.95;;;;;;;-1.06;63.79;102444.72;6262099;23;20018;-83
2023/01/23 05:50:12;;;;;;;16.42;6.82;;;;;;;-1.10;64.62;102465.69;6211501;23;20016;-83
2023/01/23 05:52:55;;;;;;;12.15;5.80;;;;;;;-1.09;63.93;102459.81;6214762;23;20032;-83
2023/01/23 05:55:26;;;;;;;12.93;6.15;;;;;;;-1.55;64.27;102387.97;6262536;23;20039;-84
2023/01/23 05:58:00;;;;;;;13.00;5.40;;;;;;;-1.25;63.61;102460.25;6213064;23;20461;-82
2023/01/23 06:00:56;;;;;;;14.20;5.68;;;;;;;-2.20;63.62;102341.81;6233235;23;20015;-81
2023/01/23 06:04:04;;;;;;;14.60;6.05;;;;;;;-1.87;64.65;102383.66;6170169;23;20043;-83
2023/01/23 06:06:53;;;;;;;13.90;5.72;;;;;;;-2.33;64.26;102280.34;6212372;23;20023;-85
2023/01/23 06:10:01;;;;;;;14.02;6.00;;;;;;;-1.61;63.88;102410.44;6217939;23;20038;-82
2023/01/23 06:13:03;;;;;;;20.02;7.15;;;;;;;-2.22;63.54;102356.09;6235852;23;20015;-82
2023/01/23 06:15:39;;;;;;;18.75;6.10;;;;;;;-2.78;63.81;102259.66;6232509;23;20046;-80
2023/01/23 06:18:35;;;;;;;15.25;6.40;;;;;;;-2.75;63.45;102282.81;6188432;23;20350;-80
2023/01/23 06:21:18;;;;;;;;;;;;;;;;;;;;;
2023/01/23 06:27:42;;;;;;;;;;;;;;;;;;;;;
2023/01/23 06:30:20;;;;;;;13.80;6.07;;;;;;;-1.89;64.92;102395.41;6231172;23;20015;-79
2023/01/23 06:33:05;;;;;;;16.88;6.10;;;;;;;-2.50;64.60;102269.59;6206016;23;20077;-82
2023/01/23 06:36:24;;;;;;;;;;;;;;;;;;;;;
2023/01/23 06:39:05;;;;;;;11.55;5.20;;;;;;;-1.86;64.69;102379.44;6215642;23;20016;-82
2023/01/23 06:41:44;;;;;;;12.05;5.38;;;;;;;-1.30;64.70;102496.38;6233264;23;20016;-80
2023/01/23 06:44:19;;;;;;;15.95;5.20;;;;;;;-1.42;64.49;102460.50;6230752;23;20022;-81
2023/01/23 06:46:51;;;;;;;11.48;5.22;;;;;;;-1.54;64.20;102442.50;6232786;23;20016;-79
2023/01/23 06:49:20;;;;;;;10.90;4.63;;;;;;;-1.55;64.32;102428.84;6208095;23;20043;-83
2023/01/23 06:51:52;;;;;;;10.00;4.60;;;;;;;-1.42;63.64;102456.28;6206357;23;20019;-80
2023/01/23 06:55:01;;;;;;;14.45;5.18;;;;;;;-2.33;64.44;102321.16;6207721;23;20042;-80
2023/01/23 06:57:51;;;;;;;11.27;4.72;;;;;;;-2.42;63.38;102313.59;6175221;23;20022;-78
2023/01/23 07:00:43;;;;;;;15.00;5.03;;;;;;;-1.38;64.23;102482.97;6231839;23;20015;-80
2023/01/23 07:03:19;;;;;;;9.80;5.05;;;;;;;-2.03;64.53;102366.19;6207622;23;20012;-81
2023/01/23 07:06:06;;;;;;;11.38;4.80;;;;;;;-2.66;63.87;102261.44;6231883;23;20012;-83
2023/01/23 07:13:40;;;;;;;;;;;;;;;;;;;;;
2023/01/23 07:19:53;;;;;;;12.90;5.07;;;;;;;-1.33;63.94;102485.94;6222257;23;20051;-83
2023/01/23 07:23:01;;;;;;;14.00;4.43;;;;;;;-1.74;64.44;102435.75;6237801;23;20020;-84
2023/01/23 07:25:57;;;;;;;12.48;4.55;;;;;;;-2.34;63.93;102320.25;6225964;23;20032;-82
2023/01/23 07:36:51;;;;;;;7.53;4.00;;;;;;;-1.45;63.20;102507.13;6201164;23;20068;-83
2023/01/23 07:39:39;;;;;;;11.38;5.07;;;;;;;-2.53;63.86;102338.19;6238831;23;20044;-85
2023/01/23 07:42:46;;;;;;;;;;;;;;;;;;;;;
2023/01/23 07:46:37;;;;;;;;;;;;;;;;;;;;;
2023/01/23 08:42:31;;;;;;;;;;;;;;;;;;;;;
2023/01/23 08:46:51;;;;;;;16.13;6.50;;;;;;;-1.45;62.63;102516.47;6156028;23;20017;-87
2023/01/23 08:56:10;;;;;;;;;;;;;;;;;;;;;
2023/01/23 08:59:45;;;;;;;17.90;8.02;;;;;;;-2.50;62.83;102355.41;5976478;24;20055;-84
2023/01/23 09:02:13;;;;;;;19.98;8.25;;;;;;;-2.12;62.73;102407.16;5984037;23;20039;-83
2023/01/23 09:05:09;;;;;;;17.95;7.97;;;;;;;-2.64;62.41;102316.00;6059601;23;20039;-85
2023/01/23 09:08:15;;;;;;;20.60;8.55;;;;;;;-2.56;62.03;102325.19;6139213;23;20024;-83
2023/01/23 09:11:37;;;;;;;19.67;8.50;;;;;;;-1.53;62.78;102490.25;6178098;23;20013;-82
2023/01/23 09:15:14;;;;;;;18.48;8.32;;;;;;;-1.04;62.17;102507.84;6177211;23;20020;-85
2023/01/23 09:18:04;;;;;;;17.88;7.47;;;;;;;-2.30;62.65;102291.69;6116971;23;20030;-81
2023/01/23 09:20:59;;;;;;;18.35;8.13;;;;;;;-1.59;61.51;102380.81;6131313;23;20116;-85
2023/01/23 09:23:48;;;;;;;20.80;7.80;;;;;;;-0.63;62.32;102526.56;6170982;23;20001;-83
2023/01/23 09:27:10;;;;;;;17.77;7.95;;;;;;;-0.54;62.03;102507.59;6157904;23;20008;-84
2023/01/23 09:30:15;;;;;;;17.77;8.63;;;;;;;-1.43;61.84;102326.78;6171038;23;20071;-86
2023/01/23 09:40:07;;;;;;;;;;;;;;;;;;;;;
2023/01/23 09:43:01;;;;;;;16.85;8.05;;;;;;;-1.17;60.73;102363.75;6171151;23;20075;-81
2023/01/23 09:45:33;;;;;;;22.55;9.10;;;;;;;-1.77;61.66;102269.53;6203114;23;20058;-83
2023/01/23 09:49:20;;;;;;;24.77;8.35;;;;;;;-0.46;61.55;102480.97;6156820;23;20001;-83
2023/01/23 09:52:19;;;;;;;17.25;8.05;;;;;;;-1.61;60.34;102279.34;6114878;23;20022;-82
2023/01/23 10:01:53;;;;;;;18.58;8.80;;;;;;;-0.76;61.18;102426.59;6197972;23;20016;-84
2023/01/23 10:04:20;;;;;;;19.83;8.68;;;;;;;-0.90;61.13;102361.59;6173056;23;20047;-79
2023/01/23 10:07:37;;;;;;;19.10;8.20;;;;;;;-0.20;60.42;102477.00;6148878;23;20054;-82
2023/01/23 10:10:45;;;;;;;22.33;8.90;;;;;;;-0.50;60.70;102455.91;6162638;23;20017;-83
2023/01/23 10:13:59;;;;;;;21.08;9.43;;;;;;;-0.37;60.94;102468.91;6187590;23;20028;-83
2023/01/23 10:17:08;;;;;;;19.40;8.10;;;;;;;-0.27;60.57;102475.63;6206026;23;20072;-83
2023/01/23 10:20:13;;;;;;;19.92;8.93;;;;;;;-0.17;60.77;102473.00;6181314;23;20016;-83
2023/01/23 10:23:31;;;;;;;17.83;8.63;;;;;;;-0.24;60.42;102475.88;6188430;23;20089;-83
2023/01/23 10:30:16;;;;;;;18.45;9.15;;;;;;;-0.03;61.15;102473.19;6149424;23;20132;-84
2023/01/23 10:33:06;;;;;;;23.63;9.50;;;;;;;0.05;60.07;102469.53;6158899;23;20043;-84
2023/01/23 10:36:38;;;;;;;17.08;8.88;;;;;;;0.17;60.48;102474.69;6175962;23;20021;-84
2023/01/23 10:47:40;;;;;;;23.38;9.50;;;;;;;0.24;59.51;102476.06;6146873;23;20021;-83
2023/01/23 10:50:31;;;;;;;23.55;9.13;;;;;;;-0.74;59.62;102363.66;6177305;23;20031;-82
2023/01/23 10:53:09;;;;;;;19.63;9.27;;;;;;;-0.53;60.21;102394.25;6265778;23;20085;-84
2023/01/23 10:55:58;;;;;;;21.77;9.02;;;;;;;-0.45;60.02;102403.44;6241035;23;20012;-81
2023/01/23 10:58:54;;;;;;;24.02;9.25;;;;;;;-1.08;59.56;102258.78;6268709;23;20012;-85
2023/01/23 11:01:36;;;;;;;23.40;8.85;;;;;;;-1.15;59.75;102226.75;6241786;23;20045;-81
2023/01/23 11:04:17;;;;;;;21.70;9.60;;;;;;;-0.65;59.96;102290.22;6190330;23;20465;-83
2023/01/23 11:06:44;;;;;;;22.60;8.82;;;;;;;0.33;59.63;102470.75;6265354;22;20023;-82
2023/01/23 11:09:23;;;;;;;22.08;9.73;;;;;;;-0.81;59.81;102303.50;6240077;23;20065;-83
2023/01/23 11:12:25;;;;;;;24.73;9.90;;;;;;;-0.37;59.25;102378.44;6265042;23;20607;-80
2023/01/23 11:15:40;;;;;;;21.80;9.68;;;;;;;0.05;59.32;102461.84;6268758;23;20000;-83
2023/01/23 11:18:31;;;;;;;24.52;9.40;;;;;;;-0.58;59.45;102340.19;6246058;23;20004;-79
2023/01/23 11:20:59;;;;;;;24.50;10.23;;;;;;;-0.45;59.35;102352.25;6271335;23;20111;-81
2023/01/23 11:23:47;;;;;;;29.27;11.40;;;;;;;-0.31;59.92;102341.41;6267298;23;20496;-81
2023/01/23 11:26:42;;;;;;;28.67;11.60;;;;;;;0.07;59.86;102421.00;6123736;23;20061;-84
2023/01/23 11:29:32;;;;;;;26.13;9.50;;;;;;;-1.00;59.25;102267.06;6125097;23;20004;-83
2023/01/23 11:32:13;;;;;;;22.15;8.70;;;;;;;-0.09;59.77;102445.41;6256984;22;20020;-83
2023/01/23 11:35:10;;;;;;;23.67;9.73;;;;;;;-0.69;59.91;102338.47;6234319;23;20021;-82
2023/01/23 11:37:40;;;;;;;24.70;9.82;;;;;;;-0.41;58.97;102387.53;6229244;23;20106;-84
2023/01/23 11:40:28;;;;;;;25.00;9.65;;;;;;;0.03;59.74;102480.44;6187142;23;20085;-85
2023/01/23 11:43:35;;;;;;;27.02;10.52;;;;;;;-0.61;59.53;102397.13;6214243;23;20035;-82
2023/01/23 11:47:03;;;;;;;27.13;11.13;;;;;;;-0.17;60.12;102462.75;6169946;23;20025;-85
2023/01/23 11:50:28;;;;;;;30.33;10.93;;;;;;;-0.22;59.87;102460.63;6092049;23;20075;-80
2023/01/23 11:53:10;;;;;;;27.13;10.52;;;;;;;-1.69;59.65;102225.97;6062740;23;19998;-83
2023/01/23 11:56:06;;;;;;;23.95;10.57;;;;;;;-0.16;60.24;102466.22;6218238;23;20170;-84
2023/01/23 11:59:00;;;;;;;27.73;11.18;;;;;;;-0.14;60.16;102463.78;6186744;23;20099;-85
2023/01/23 12:05:48;;;;;;;31.55;11.02;;;;;;;-0.18;60.27;102439.63;6184245;23;20016;-83
2023/01/23 12:08:44;;;;;;;28.75;10.93;;;;;;;0.04;59.75;102472.00;6241197;23;20533;-83
2023/01/23 12:12:08;;;;;;;25.95;10.25;;;;;;;-0.01;60.31;102487.88;6217666;23;20039;-82
2023/01/23 12:15:29;;;;;;;32.47;11.23;;;;;;;0.10;59.73;102482.72;6243404;23;20012;-80
2023/01/23 12:18:20;;;;;;;30.40;11.07;;;;;;;0.12;60.43;102465.75;6156892;23;20062;-82
2023/01/23 12:21:21;;;;;;;31.77;10.98;;;;;;;0.26;60.96;102459.13;6210161;23;20012;-83
2023/01/23 12:24:15;;;;;;;27.80;11.15;;;;;;;0.31;59.93;102462.06;6233604;23;20039;-83
2023/01/23 12:27:15;;;;;;;29.20;10.55;;;;;;;0.25;60.03;102489.00;6260127;23;20020;-84
2023/01/23 12:30:06;;;;;;;29.40;11.38;;;;;;;0.06;60.49;102467.88;6233323;23;20094;-82
2023/01/23 12:33:26;;;;;;;36.05;11.32;;;;;;;0.08;60.53;102459.53;6233824;23;20012;-82
2023/01/23 12:36:41;;;;;;;31.73;11.25;;;;;;;0.11;60.56;102457.19;6091759;23;20014;-83
2023/01/23 12:40:29;;;;;;;29.55;10.60;;;;;;;-0.64;60.47;102309.00;6142063;22;20017;-83
2023/01/23 12:43:28;;;;;;;34.40;11.52;;;;;;;0.31;59.90;102455.25;6260030;23;20086;-81
2023/01/23 12:46:05;;;;;;;32.30;11.02;;;;;;;-0.81;60.26;102254.03;6237461;23;20365;-81
2023/01/23 12:49:02;;;;;;;34.10;11.50;;;;;;;-0.05;59.81;102420.97;6235963;23;20019;-82
2023/01/23 12:52:05;;;;;;;32.50;11.18;;;;;;;-0.87;60.09;102268.91;6214139;23;20035;-79
2023/01/23 12:55:25;;;;;;;36.17;13.07;;;;;;;-0.28;60.08;102378.25;6235624;23;20019;-83
2023/01/23 12:58:00;;;;;;;31.65;11.55;;;;;;;-0.58;60.31;102334.19;6247104;23;20020;-81
2023/01/23 13:00:49;;;;;;;33.28;11.38;;;;;;;-0.05;60.03;102434.66;6230122;23;20020;-81
2023/01/23 13:04:00;;;;;;;34.15;11.80;;;;;;;-0.22;59.41;102456.38;6252966;23;20023;-82
2023/01/23 13:13:34;;;;;;;31.52;11.73;;;;;;;-1.45;60.86;102222.72;6257104;23;20074;-81
2023/01/23 13:16:23;;;;;;;32.78;11.82;;;;;;;-1.23;60.87;102249.16;6251687;23;20019;-83
2023/01/23 13:22:40;;;;;;;33.88;12.18;;;;;;;-0.13;59.81;102443.44;6237978;23;20023;-81
2023/01/23 13:25:27;;;;;;;32.70;12.02;;;;;;;-0.88;61.39;102328.47;6168244;23;20016;-83
2023/01/23 13:27:58;;;;;;;37.20;11.57;;;;;;;-1.38;60.75;102238.63;6205659;23;20101;-83
2023/01/23 13:30:47;;;;;;;33.50;12.32;;;;;;;-0.03;60.98;102455.28;6256474;23;20043;-85
2023/01/23 13:33:43;;;;;;;27.77;12.40;;;;;;;-0.11;60.17;102446.09;6228515;23;20454;-87
2023/01/23 13:36:22;;;;;;;38.03;12.27;;;;;;;-0.71;60.58;102347.69;6216770;23;20020;-84
2023/01/23 13:39:35;;;;;;;34.20;12.13;;;;;;;-0.65;60.71;102391.63;6252998;23;20019;-83
2023/01/23 13:42:14;;;;;;;32.58;11.30;;;;;;;-0.33;61.11;102429.94;6197798;23;20024;-85
2023/01/23 13:45:18;;;;;;;34.22;12.60;;;;;;;-0.07;60.88;102453.25;6248651;23;20062;-86
2023/01/23 13:51:29;;;;;;;29.88;11.63;;;;;;;-0.47;61.13;102387.06;6248312;22;20027;-82
2023/01/23 13:56:56;;;;;;;33.22;11.10;;;;;;;-0.78;61.21;102329.31;6251412;23;20016;-83
2023/01/23 13:59:57;;;;;;;30.20;11.60;;;;;;;-0.69;61.41;102325.69;6252982;23;20012;-82
2023/01/23 14:05:34;;;;;;;33.65;11.40;;;;;;;-0.53;60.26;102373.78;6225558;23;20035;-83
2023/01/23 14:08:49;;;;;;;36.63;13.13;;;;;;;-0.95;60.93;102310.09;6226100;23;20786;-86
2023/01/23 14:11:50;;;;;;;;;;;;;;;;;;;;;
2023/01/23 14:17:25;;;;;;;33.78;12.45;;;;;;;-0.74;60.73;102347.44;6222282;23;20118;-85
2023/01/23 14:20:38;;;;;;;34.95;12.00;;;;;;;-0.38;61.16;102417.59;6247956;23;20075;-86
2023/01/23 14:23:42;;;;;;;35.20;11.73;;;;;;;-1.26;60.59;102292.34;6227463;23;20020;-84
2023/01/23 14:26:32;;;;;;;36.70;12.05;;;;;;;-1.01;61.28;102339.41;6253194;23;20012;-84
2023/01/23 14:30:33;;;;;;;35.50;13.23;;;;;;;-0.87;61.10;102353.28;6103612;23;20089;-87
2023/01/23 14:34:02;;;;;;;39.00;12.55;;;;;;;-1.21;60.53;102301.25;6259004;23;20022;-82
2023/01/23 14:37:22;;;;;;;;;;;;;;;;;;;;;
2023/01/23 14:39:52;;;;;;;42.25;13.85;;;;;;;-1.73;61.70;102205.19;6236448;23;20019;-85
2023/01/23 14:43:11;;;;;;;39.10;14.27;;;;;;;-0.92;62.03;102322.25;6209867;23;20046;-84
2023/01/23 14:45:47;;;;;;;39.15;13.75;;;;;;;-0.32;61.01;102426.63;6117513;23;20105;-81
2023/01/23 14:49:04;;;;;;;38.92;13.10;;;;;;;-1.78;60.86;102204.84;6180675;23;20035;-84
2023/01/23 14:51:37;;;;;;;41.67;14.32;;;;;;;-1.70;61.28;102223.31;6185238;23;20020;-80
2023/01/23 14:54:34;;;;;;;41.03;15.60;;;;;;;-0.52;62.23;102435.31;6210957;23;20411;-82
2023/01/23 14:57:20;;;;;;;42.03;15.52;;;;;;;-0.40;62.41;102422.59;6206268;23;20017;-82
2023/01/23 15:00:15;;;;;;;37.70;14.52;;;;;;;-0.31;62.15;102430.97;6173458;23;20019;-80
2023/01/23 15:02:49;;;;;;;43.63;15.63;;;;;;;-1.53;61.92;102233.19;6199859;23;20017;-82
2023/01/23 15:05:37;;;;;;;;;;;;;;;;;;;;;
2023/01/23 15:09:12;;;;;;;;;;;;;;;;;;;;;
2023/01/23 15:12:53;;;;;;;38.45;14.07;;;;;;;-0.32;61.33;102418.06;6165025;23;20095;-82